Terminal Aerodrome Forecast
Issued by NWS Milwaukee/Sullivan, WI

Home | Current Version | Previous Version | Text Only | Print | Product List | Glossary On
Versions: 1 2 3 4 5 6 7 8 9 10 11 12 13 14 15 16 17 18 19 20 21 22 23 24 25 26 27 28 29 30 31 32 33 34 35 36 37 38 39 40 41 42 43 44 45 46 47 48 49 50
000
FTUS43 KMKX 030537
TAFMKE
TAF
KMKE 030537Z 0306/0412 18006KT P6SM BKN080
     FM031100 16010KT 3SM -SN BKN025 OVC040
     FM031300 16014KT 2SM -SN OVC011
     FM031500 16016G23KT 2SM -FZRAPL OVC008
     FM031900 19015KT 3SM -RA OVC003
     FM032300 22014G21KT P6SM OVC015
     FM040100 26013KT P6SM OVC025
     FM040300 29011KT P6SM OVC040
     FM040700 29011KT P6SM SCT050=

USA.gov is the U.S. government's official web portal to all federal, state and local government web resources and services.